createdAt,value
2019-01-11T00:00:10.000Z,27.1
2019-01-11T00:02:10.000Z,27.2
2019-01-11T00:03:10.000Z,27.2
2019-01-11T00:04:10.000Z,27.2
2019-01-11T00:06:10.000Z,27.2
2019-01-11T00:08:10.000Z,27.1
2019-01-11T00:10:10.000Z,27
2019-01-11T00:11:10.000Z,27
2019-01-11T00:12:10.000Z,27.1
2019-01-11T00:14:10.000Z,27.1
2019-01-11T00:16:10.000Z,27.1
2019-01-11T00:18:10.000Z,26.9
2019-01-11T00:20:10.000Z,26.9
2019-01-11T00:22:10.000Z,26.8
2019-01-11T00:24:10.000Z,26.8
2019-01-11T00:25:10.000Z,26.8
2019-01-11T00:26:10.000Z,26.9
2019-01-11T00:28:10.000Z,26.9
2019-01-11T00:30:10.000Z,26.9
2019-01-11T00:32:10.000Z,26.8
2019-01-11T00:33:10.000Z,26.8
2019-01-11T00:34:10.000Z,26.9
2019-01-11T00:35:10.000Z,26.9
2019-01-11T00:36:10.000Z,27
2019-01-11T00:38:10.000Z,27.1
2019-01-11T00:40:10.000Z,27.1
2019-01-11T00:41:10.000Z,27.1
2019-01-11T00:43:10.000Z,27.1
2019-01-11T00:45:10.000Z,26.9
2019-01-11T00:47:10.000Z,26.8
2019-01-11T00:48:10.000Z,26.7
2019-01-11T00:50:10.000Z,26.7
2019-01-11T00:51:10.000Z,26.8
2019-01-11T00:53:10.000Z,26.8
2019-01-11T00:54:10.000Z,26.9
2019-01-11T00:55:10.000Z,26.9
2019-01-11T00:56:54.000Z,26.9
2019-01-11T00:58:10.000Z,26.9
2019-01-11T01:00:10.000Z,26.8
2019-01-11T01:01:10.000Z,26.8
2019-01-11T01:02:10.000Z,26.9
2019-01-11T01:04:10.000Z,26.9
2019-01-11T01:06:10.000Z,26.9
2019-01-11T01:08:10.000Z,26.9
2019-01-11T01:10:10.000Z,26.8
2019-01-11T01:12:10.000Z,26.7
2019-01-11T01:14:10.000Z,26.7
2019-01-11T01:15:55.000Z,26.8
2019-01-11T01:17:10.000Z,26.7
2019-01-11T01:19:10.000Z,26.8
2019-01-11T01:20:10.000Z,26.8
2019-01-11T01:21:55.000Z,26.9
2019-01-11T01:23:10.000Z,26.8
2019-01-11T01:25:10.000Z,26.8
2019-01-11T01:26:10.000Z,26.9
2019-01-11T01:28:10.000Z,26.9
2019-01-11T01:29:10.000Z,26.9
2019-01-11T01:30:10.000Z,27
2019-01-11T01:31:10.000Z,27
2019-01-11T01:33:10.000Z,27
2019-01-11T01:35:10.000Z,26.8
2019-01-11T01:36:10.000Z,26.8
2019-01-11T01:37:09.000Z,26.8
2019-01-11T01:38:09.000Z,26.8
2019-01-11T01:40:09.000Z,26.8
2019-01-11T01:41:09.000Z,26.8
2019-01-11T01:42:54.000Z,26.9
2019-01-11T01:44:09.000Z,26.9
2019-01-11T01:46:09.000Z,26.8
2019-01-11T01:47:09.000Z,26.8
2019-01-11T01:49:09.000Z,26.9
2019-01-11T01:51:09.000Z,26.8
2019-01-11T01:52:09.000Z,26.8
2019-01-11T01:54:09.000Z,26.8
2019-01-11T01:56:09.000Z,26.7
2019-01-11T01:58:09.000Z,26.6
2019-01-11T02:00:09.000Z,26.6
2019-01-11T02:02:09.000Z,26.6
2019-01-11T02:03:09.000Z,26.6
2019-01-11T02:04:09.000Z,26.6
2019-01-11T02:06:09.000Z,26.7
2019-01-11T02:07:09.000Z,26.8
2019-01-11T02:09:09.000Z,26.8
2019-01-11T02:10:09.000Z,26.8
2019-01-11T02:12:09.000Z,26.9
2019-01-11T02:14:09.000Z,26.8
2019-01-11T02:16:09.000Z,26.7
2019-01-11T02:17:09.000Z,26.7
2019-01-11T02:18:09.000Z,26.8
2019-01-11T02:19:54.000Z,26.8
2019-01-11T02:21:09.000Z,26.8
2019-01-11T02:23:09.000Z,26.8
2019-01-11T02:24:54.000Z,26.8
2019-01-11T02:26:09.000Z,26.7
2019-01-11T02:28:09.000Z,26.7
2019-01-11T02:29:09.000Z,26.7
2019-01-11T02:30:09.000Z,26.7
2019-01-11T02:32:09.000Z,26.7
2019-01-11T02:34:09.000Z,26.7
2019-01-11T02:36:09.000Z,26.6
2019-01-11T02:38:09.000Z,26.6
2019-01-11T02:39:09.000Z,26.6
2019-01-11T02:41:09.000Z,26.7
2019-01-11T02:43:09.000Z,26.7
2019-01-11T02:44:09.000Z,26.6
2019-01-11T02:45:09.000Z,26.7
2019-01-11T02:47:09.000Z,26.8
2019-01-11T02:48:09.000Z,26.8
2019-01-11T02:50:09.000Z,26.8
2019-01-11T02:51:09.000Z,26.8
2019-01-11T02:52:09.000Z,26.9
2019-01-11T02:54:09.000Z,26.9
2019-01-11T02:55:09.000Z,26.9
2019-01-11T02:57:09.000Z,26.9
2019-01-11T02:59:09.000Z,26.9
2019-01-11T03:00:09.000Z,26.9
2019-01-11T03:02:09.000Z,26.8
2019-01-11T03:03:54.000Z,26.8
2019-01-11T03:05:09.000Z,26.7
2019-01-11T03:06:09.000Z,26.7
2019-01-11T03:07:09.000Z,26.7
2019-01-11T03:09:09.000Z,26.8
2019-01-11T03:11:09.000Z,26.8
2019-01-11T03:12:09.000Z,26.8
2019-01-11T03:14:09.000Z,26.7
2019-01-11T03:15:09.000Z,26.7
2019-01-11T03:17:09.000Z,26.7
2019-01-11T03:19:09.000Z,26.6
2019-01-11T03:21:09.000Z,26.6
2019-01-11T03:22:09.000Z,26.6
2019-01-11T03:24:09.000Z,26.7
2019-01-11T03:26:09.000Z,26.6
2019-01-11T03:28:09.000Z,26.5
2019-01-11T03:30:09.000Z,26.5
2019-01-11T03:31:09.000Z,26.5
2019-01-11T03:32:09.000Z,26.6
2019-01-11T03:33:09.000Z,26.7
2019-01-11T03:35:09.000Z,26.8
2019-01-11T03:37:09.000Z,26.7
2019-01-11T03:38:09.000Z,26.7
2019-01-11T03:39:09.000Z,26.7
2019-01-11T03:41:09.000Z,26.8
2019-01-11T03:42:09.000Z,26.8
2019-01-11T03:43:09.000Z,26.8
2019-01-11T03:44:55.000Z,26.9
2019-01-11T03:46:10.000Z,26.8
2019-01-11T03:47:10.000Z,26.8
2019-01-11T03:49:10.000Z,26.8
2019-01-11T03:51:10.000Z,26.7
2019-01-11T03:53:10.000Z,26.7
2019-01-11T03:54:10.000Z,26.7
2019-01-11T03:55:10.000Z,26.7
2019-01-11T03:57:10.000Z,26.7
2019-01-11T03:59:10.000Z,26.7
2019-01-11T04:00:10.000Z,26.7
2019-01-11T04:01:55.000Z,26.7
2019-01-11T04:03:10.000Z,26.7
2019-01-11T04:05:10.000Z,26.6
2019-01-11T04:06:10.000Z,26.6
2019-01-11T04:08:10.000Z,26.6
2019-01-11T04:10:10.000Z,26.6
2019-01-11T04:11:10.000Z,26.5
2019-01-11T04:12:10.000Z,26.6
2019-01-11T04:13:10.000Z,26.6
2019-01-11T04:15:10.000Z,26.7
2019-01-11T04:17:10.000Z,26.7
2019-01-11T04:18:10.000Z,26.6
2019-01-11T04:19:10.000Z,26.7
2019-01-11T04:21:10.000Z,26.7
2019-01-11T04:23:10.000Z,26.6
2019-01-11T04:25:10.000Z,26.5
2019-01-11T04:27:10.000Z,26.5
2019-01-11T04:29:10.000Z,26.5
2019-01-11T04:30:55.000Z,26.5
2019-01-11T04:32:10.000Z,26.4
2019-01-11T04:34:10.000Z,26.4
2019-01-11T04:36:10.000Z,26.4
2019-01-11T04:38:10.000Z,26.4
2019-01-11T04:40:10.000Z,26.5
2019-01-11T04:42:10.000Z,26.4
2019-01-11T04:43:55.000Z,26.4
2019-01-11T04:45:10.000Z,26.4
2019-01-11T04:46:10.000Z,26.4
2019-01-11T04:47:10.000Z,26.5
2019-01-11T04:48:10.000Z,26.6
2019-01-11T04:49:10.000Z,26.6
2019-01-11T04:51:10.000Z,26.7
2019-01-11T04:52:10.000Z,26.8
2019-01-11T04:54:10.000Z,26.8
2019-01-11T04:56:10.000Z,26.8
2019-01-11T04:57:10.000Z,26.8
2019-01-11T04:59:10.000Z,26.8
2019-01-11T05:00:10.000Z,26.8
2019-01-11T05:02:10.000Z,26.8
2019-01-11T05:03:10.000Z,26.8
2019-01-11T05:04:10.000Z,26.8
2019-01-11T05:06:10.000Z,26.8
2019-01-11T05:08:10.000Z,26.8
2019-01-11T05:10:10.000Z,26.7
2019-01-11T05:11:54.000Z,26.7
2019-01-11T05:13:10.000Z,26.6
2019-01-11T05:15:10.000Z,26.6
2019-01-11T05:16:10.000Z,26.6
2019-01-11T05:18:10.000Z,26.6
2019-01-11T05:19:10.000Z,26.6
2019-01-11T05:21:10.000Z,26.7
2019-01-11T05:22:10.000Z,26.7
2019-01-11T05:23:54.000Z,26.7
2019-01-11T05:25:10.000Z,26.6
2019-01-11T05:26:10.000Z,26.7
2019-01-11T05:28:10.000Z,26.7
2019-01-11T05:30:10.000Z,26.6
2019-01-11T05:32:10.000Z,26.6
2019-01-11T05:33:54.000Z,26.5
2019-01-11T05:34:55.000Z,26.5
2019-01-11T05:36:10.000Z,26.5
2019-01-11T05:37:10.000Z,26.5
2019-01-11T05:38:54.000Z,26.6
2019-01-11T05:40:10.000Z,26.6
2019-01-11T05:42:10.000Z,26.6
2019-01-11T05:44:10.000Z,26.7
2019-01-11T05:45:10.000Z,26.7
2019-01-11T05:46:10.000Z,26.8
2019-01-11T05:48:10.000Z,26.9
2019-01-11T05:49:10.000Z,26.9
2019-01-11T05:51:10.000Z,26.9
2019-01-11T05:53:10.000Z,26.9
2019-01-11T05:55:10.000Z,26.9
2019-01-11T05:57:10.000Z,26.9
2019-01-11T05:59:10.000Z,26.8
2019-01-11T06:00:10.000Z,26.8
2019-01-11T06:01:10.000Z,26.9
2019-01-11T06:02:55.000Z,27
2019-01-11T06:03:55.000Z,27
2019-01-11T06:05:10.000Z,27
2019-01-11T06:06:10.000Z,26.9
2019-01-11T06:07:10.000Z,27
2019-01-11T06:09:10.000Z,27.1
2019-01-11T06:11:10.000Z,27.1
2019-01-11T06:12:10.000Z,27.1
2019-01-11T06:13:55.000Z,27.2
2019-01-11T06:15:10.000Z,27.2
2019-01-11T06:17:10.000Z,27.1
2019-01-11T06:19:10.000Z,27.1
2019-01-11T06:21:10.000Z,27.2
2019-01-11T06:22:10.000Z,27.2
2019-01-11T06:24:10.000Z,27.3
2019-01-11T06:25:10.000Z,27.3
2019-01-11T06:27:10.000Z,27.4
2019-01-11T06:29:10.000Z,27.4
2019-01-11T06:30:10.000Z,27.4
2019-01-11T06:32:10.000Z,27.4
2019-01-11T06:34:10.000Z,27.4
2019-01-11T06:36:10.000Z,27.3
2019-01-11T06:38:10.000Z,27.2
2019-01-11T06:39:10.000Z,27.3
2019-01-11T06:40:10.000Z,27.3
2019-01-11T06:41:10.000Z,27.4
2019-01-11T06:43:10.000Z,27.6
2019-01-11T06:44:10.000Z,27.6
2019-01-11T06:46:10.000Z,27.7
2019-01-11T06:47:10.000Z,27.7
2019-01-11T06:48:10.000Z,27.8
2019-01-11T06:50:10.000Z,27.8
2019-01-11T06:51:10.000Z,27.8
2019-01-11T06:53:10.000Z,27.8
2019-01-11T06:55:10.000Z,27.7
2019-01-11T06:56:10.000Z,27.6
2019-01-11T06:57:55.000Z,27.7
2019-01-11T06:59:10.000Z,27.6
2019-01-11T07:00:10.000Z,27.7
2019-01-11T07:01:55.000Z,27.7
2019-01-11T07:03:10.000Z,27.7
2019-01-11T07:04:10.000Z,27.7
2019-01-11T07:06:10.000Z,27.7
2019-01-11T07:08:10.000Z,27.7
2019-01-11T07:10:10.000Z,27.7
2019-01-11T07:12:10.000Z,27.7
2019-01-11T07:14:10.000Z,27.7
2019-01-11T07:16:10.000Z,27.6
2019-01-11T07:18:10.000Z,27.5
2019-01-11T07:19:10.000Z,27.5
2019-01-11T07:21:10.000Z,27.5
2019-01-11T07:22:10.000Z,27.5
2019-01-11T07:23:10.000Z,27.6
2019-01-11T07:24:10.000Z,27.6
2019-01-11T07:26:10.000Z,27.7
2019-01-11T07:28:10.000Z,27.7
2019-01-11T07:29:55.000Z,27.5
2019-01-11T07:31:10.000Z,27.5
2019-01-11T07:33:10.000Z,27.4
2019-01-11T07:35:10.000Z,27.3
2019-01-11T07:36:10.000Z,27.3
2019-01-11T07:38:10.000Z,27.5
2019-01-11T07:39:10.000Z,27.5
2019-01-11T07:40:10.000Z,27.6
2019-01-11T07:42:10.000Z,27.7
2019-01-11T07:43:55.000Z,27.8
2019-01-11T07:45:10.000Z,27.8
2019-01-11T07:46:10.000Z,27.8
2019-01-11T07:48:10.000Z,27.9
2019-01-11T07:49:10.000Z,27.9
2019-01-11T07:51:10.000Z,27.9
2019-01-11T07:52:10.000Z,27.9
2019-01-11T07:54:10.000Z,27.9
2019-01-11T07:55:10.000Z,27.9
2019-01-11T07:57:10.000Z,27.9
2019-01-11T07:58:10.000Z,27.9
2019-01-11T07:59:10.000Z,28
2019-01-11T08:01:10.000Z,28
2019-01-11T08:02:55.000Z,28
2019-01-11T08:04:10.000Z,27.9
2019-01-11T08:06:10.000Z,27.9
2019-01-11T08:07:10.000Z,27.9
2019-01-11T08:08:10.000Z,28
2019-01-11T08:09:10.000Z,28
2019-01-11T08:10:55.000Z,28
2019-01-11T08:12:10.000Z,28
2019-01-11T08:14:10.000Z,28
2019-01-11T08:16:10.000Z,27.9
2019-01-11T08:17:10.000Z,27.9
2019-01-11T08:19:10.000Z,28
2019-01-11T08:20:55.000Z,28
2019-01-11T08:22:10.000Z,27.8
2019-01-11T08:23:10.000Z,27.8
2019-01-11T08:25:10.000Z,27.8
2019-01-11T08:27:10.000Z,27.8
2019-01-11T08:28:10.000Z,27.8
2019-01-11T08:29:10.000Z,27.9
2019-01-11T08:31:10.000Z,27.9
2019-01-11T08:32:10.000Z,28
2019-01-11T08:34:10.000Z,28
2019-01-11T08:35:10.000Z,28
2019-01-11T08:37:10.000Z,28.1
2019-01-11T08:38:10.000Z,28.1
2019-01-11T08:39:55.000Z,28.1
2019-01-11T08:41:10.000Z,28.1
2019-01-11T08:43:10.000Z,28.1
2019-01-11T08:45:10.000Z,28.1
2019-01-11T08:47:10.000Z,28
2019-01-11T08:48:55.000Z,28
2019-01-11T08:50:10.000Z,28
2019-01-11T08:52:10.000Z,28
2019-01-11T08:54:10.000Z,28
2019-01-11T08:56:10.000Z,28
2019-01-11T08:58:10.000Z,28
2019-01-11T08:59:10.000Z,28
2019-01-11T09:00:10.000Z,28.1
2019-01-11T09:01:55.000Z,28.2
2019-01-11T09:03:10.000Z,28.2
2019-01-11T09:05:10.000Z,28.2
2019-01-11T09:07:10.000Z,28.1
2019-01-11T09:09:10.000Z,28
2019-01-11T09:11:10.000Z,28
2019-01-11T09:12:10.000Z,28
2019-01-11T09:13:10.000Z,28.1
2019-01-11T09:15:10.000Z,28.2
2019-01-11T09:16:10.000Z,28.3
2019-01-11T09:18:10.000Z,28.3
2019-01-11T09:19:10.000Z,28.3
2019-01-11T09:20:10.000Z,28.3
2019-01-11T09:58:33.000Z,26.6
2019-01-11T10:00:19.000Z,26.8
2019-01-11T10:01:19.000Z,27
2019-01-11T10:03:19.000Z,27.4
2019-01-11T10:05:19.000Z,27.5
2019-01-11T10:07:19.000Z,27.6
2019-01-11T10:08:19.000Z,27.6
2019-01-11T10:09:19.000Z,27.8
2019-01-11T10:10:19.000Z,28
2019-01-11T10:11:19.000Z,28.1
2019-01-11T10:13:19.000Z,28.3
2019-01-11T10:15:19.000Z,28.4
2019-01-11T10:17:19.000Z,28.4
2019-01-11T10:18:19.000Z,28.5
2019-01-11T10:20:19.000Z,28.5
2019-01-11T10:22:19.000Z,28.6
2019-01-11T10:23:19.000Z,28.6
2019-01-11T10:25:19.000Z,28.8
2019-01-11T10:27:04.000Z,28.9
2019-01-11T10:28:19.000Z,28.9
2019-01-11T10:29:19.000Z,28.9
2019-01-11T10:30:19.000Z,29
2019-01-11T10:32:04.000Z,29.1
2019-01-11T10:33:19.000Z,29.1
2019-01-11T10:35:19.000Z,29.1
2019-01-11T10:36:19.000Z,29.1
2019-01-11T10:38:19.000Z,29.2
2019-01-11T10:39:19.000Z,29.2
2019-01-11T10:41:19.000Z,29.3
2019-01-11T10:43:19.000Z,29.3
2019-01-11T10:45:19.000Z,29.2
2019-01-11T10:46:19.000Z,29.2
2019-01-11T10:48:19.000Z,29.2
2019-01-11T10:50:19.000Z,29.2
2019-01-11T10:52:19.000Z,29.2
2019-01-11T10:54:19.000Z,29.2
2019-01-11T10:55:19.000Z,29.2
2019-01-11T10:57:19.000Z,29.2
2019-01-11T10:58:19.000Z,29.3
2019-01-11T11:00:19.000Z,29.3
2019-01-11T11:02:19.000Z,29.2
2019-01-11T11:03:19.000Z,29.2
2019-01-11T11:05:19.000Z,29.3
2019-01-11T11:07:19.000Z,29.2
2019-01-11T11:09:19.000Z,29.2
2019-01-11T11:11:19.000Z,29.2
2019-01-11T11:13:19.000Z,29.2
2019-01-11T11:14:19.000Z,29.2
2019-01-11T11:16:03.000Z,29.3
2019-01-11T11:17:19.000Z,29.3
2019-01-11T11:18:19.000Z,29.4
2019-01-11T11:19:19.000Z,29.4
2019-01-11T11:21:19.000Z,29.5
2019-01-11T11:23:03.000Z,29.5
2019-01-11T11:24:19.000Z,29.5
2019-01-11T11:26:19.000Z,29.5
2019-01-11T11:28:19.000Z,29.5
2019-01-11T11:30:19.000Z,29.5
2019-01-11T11:31:19.000Z,29.5
2019-01-11T11:33:19.000Z,29.5
2019-01-11T11:35:03.000Z,29.6
2019-01-11T11:36:19.000Z,29.5
2019-01-11T11:37:19.000Z,29.5
2019-01-11T11:39:19.000Z,29.6
2019-01-11T11:40:19.000Z,29.7
2019-01-11T11:42:19.000Z,29.7
2019-01-11T11:43:19.000Z,29.7
2019-01-11T11:45:19.000Z,29.8
2019-01-11T11:47:19.000Z,29.8
2019-01-11T11:49:19.000Z,29.8
2019-01-11T11:50:19.000Z,29.8
2019-01-11T11:52:19.000Z,29.8
2019-01-11T11:54:19.000Z,29.7
2019-01-11T11:55:19.000Z,29.7
2019-01-11T11:57:19.000Z,29.8
2019-01-11T11:58:19.000Z,29.9
2019-01-11T11:59:19.000Z,29.9
2019-01-11T12:01:19.000Z,30
2019-01-11T12:02:19.000Z,30
2019-01-11T12:04:03.000Z,30
2019-01-11T12:05:19.000Z,30
2019-01-11T12:06:19.000Z,30
2019-01-11T12:08:19.000Z,29.9
2019-01-11T12:09:19.000Z,29.9
2019-01-11T12:10:19.000Z,29.9
2019-01-11T12:11:19.000Z,29.9
2019-01-11T12:13:19.000Z,29.9
2019-01-11T12:14:20.000Z,29.9
2019-01-11T12:16:04.000Z,29.9
2019-01-11T12:17:20.000Z,29.9
2019-01-11T12:19:20.000Z,29.8
2019-01-11T12:21:19.000Z,29.7
2019-01-11T12:23:04.000Z,29.7
2019-01-11T12:24:19.000Z,29.7
2019-01-11T12:26:20.000Z,29.6
2019-01-11T12:28:19.000Z,29.5
2019-01-11T12:30:20.000Z,29.5
2019-01-11T12:32:20.000Z,29.4
2019-01-11T12:34:19.000Z,29.3
2019-01-11T12:36:20.000Z,29.2
2019-01-11T12:38:19.000Z,29.1
2019-01-11T12:39:20.000Z,29.1
2019-01-11T12:41:04.000Z,29.1
2019-01-11T12:42:20.000Z,29.1
2019-01-11T12:44:04.000Z,29.1
2019-01-11T12:45:19.000Z,29
2019-01-11T12:47:20.000Z,29
2019-01-11T12:48:20.000Z,28.9
2019-01-11T12:50:20.000Z,29
2019-01-11T12:51:20.000Z,29
2019-01-11T12:53:20.000Z,29.1
2019-01-11T12:55:20.000Z,29.1
2019-01-11T12:57:20.000Z,29.2
2019-01-11T12:59:19.000Z,29.1
2019-01-11T13:01:20.000Z,29.1
2019-01-11T13:02:20.000Z,29.1
2019-01-11T13:04:20.000Z,29.1
2019-01-11T13:06:20.000Z,29.1
2019-01-11T13:07:20.000Z,29.1
2019-01-11T13:09:20.000Z,29.2
2019-01-11T13:11:04.000Z,29.2
2019-01-11T13:12:19.000Z,29.2
2019-01-11T13:13:20.000Z,29.2
2019-01-11T13:15:20.000Z,29.2
2019-01-11T13:17:19.000Z,29.2
2019-01-11T13:19:19.000Z,29.2
2019-01-11T13:20:19.000Z,29.2
2019-01-11T13:21:19.000Z,29.3
2019-01-11T13:22:19.000Z,29.4
2019-01-11T13:24:19.000Z,29.3
2019-01-11T13:25:19.000Z,29.3
2019-01-11T13:27:04.000Z,29.4
2019-01-11T13:28:19.000Z,29.3
2019-01-11T13:29:19.000Z,29.3
2019-01-11T13:31:03.000Z,29.4
2019-01-11T13:32:19.000Z,29.4
2019-01-11T13:33:19.000Z,29.5
2019-01-11T13:35:27.000Z,29.6
2019-01-11T13:37:26.000Z,29.6
2019-01-11T13:38:26.000Z,29.5
2019-01-11T13:40:26.000Z,29.5
2019-01-11T13:41:26.000Z,29.5
2019-01-11T13:43:26.000Z,29.5
2019-01-11T13:45:26.000Z,29.4
2019-01-11T13:46:26.000Z,29.4
2019-01-11T13:47:26.000Z,29.4
2019-01-11T13:48:26.000Z,29.4
2019-01-11T13:50:26.000Z,29.4
2019-01-11T13:51:26.000Z,29.4
2019-01-11T13:52:26.000Z,29.5
2019-01-11T13:53:26.000Z,29.5
2019-01-11T13:54:26.000Z,29.5
2019-01-11T13:55:26.000Z,29.5
2019-01-11T13:57:27.000Z,29.5
2019-01-11T13:59:26.000Z,29.4
2019-01-11T14:01:26.000Z,29.3
2019-01-11T14:02:26.000Z,29.3
2019-01-11T14:04:26.000Z,29.3
2019-01-11T14:05:26.000Z,29.3
2019-01-11T14:07:26.000Z,29.3
2019-01-11T14:08:26.000Z,29.3
2019-01-11T14:10:26.000Z,29.4
2019-01-11T14:12:26.000Z,29.3
2019-01-11T14:14:11.000Z,29.3
2019-01-11T14:15:26.000Z,29.2
2019-01-11T14:16:26.000Z,29.2
2019-01-11T14:18:26.000Z,29.2
2019-01-11T14:19:26.000Z,29.2
2019-01-11T14:20:26.000Z,29.3
2019-01-11T14:22:12.000Z,29.4
2019-01-11T14:23:27.000Z,29.2
2019-01-11T14:25:27.000Z,29.1
2019-01-11T14:27:27.000Z,29
2019-01-11T14:29:27.000Z,29
2019-01-11T14:30:27.000Z,29
2019-01-11T14:32:27.000Z,29
2019-01-11T14:34:27.000Z,29
2019-01-11T14:35:27.000Z,29
2019-01-11T14:37:27.000Z,29
2019-01-11T14:39:27.000Z,28.9
2019-01-11T14:40:27.000Z,28.9
2019-01-11T14:42:27.000Z,29
2019-01-11T14:43:27.000Z,29
2019-01-11T14:45:27.000Z,29
2019-01-11T14:47:27.000Z,29
2019-01-11T14:49:27.000Z,29
2019-01-11T14:50:27.000Z,29
2019-01-11T14:52:27.000Z,29
2019-01-11T14:54:27.000Z,29
2019-01-11T14:56:12.000Z,29
2019-01-11T14:57:27.000Z,29
2019-01-11T14:59:27.000Z,28.9
2019-01-11T15:00:27.000Z,28.9
2019-01-11T15:01:27.000Z,28.9
2019-01-11T15:02:27.000Z,29
2019-01-11T15:04:27.000Z,29
2019-01-11T15:06:27.000Z,29
2019-01-11T15:08:27.000Z,28.9
2019-01-11T15:10:27.000Z,28.9
2019-01-11T15:12:27.000Z,28.9
2019-01-11T15:13:27.000Z,28.9
2019-01-11T15:15:27.000Z,28.9
2019-01-11T15:17:27.000Z,28.8
2019-01-11T15:18:27.000Z,28.8
2019-01-11T15:20:27.000Z,28.7
2019-01-11T15:21:27.000Z,28.7
2019-01-11T15:22:27.000Z,28.7
2019-01-11T15:24:27.000Z,28.8
2019-01-11T15:25:27.000Z,28.8
2019-01-11T15:27:27.000Z,28.7
2019-01-11T15:29:27.000Z,28.6
2019-01-11T15:31:27.000Z,28.6
2019-01-11T15:33:27.000Z,28.6
2019-01-11T15:34:27.000Z,28.6
2019-01-11T15:35:27.000Z,28.7
2019-01-11T15:37:12.000Z,28.8
2019-01-11T15:38:27.000Z,28.8
2019-01-11T15:40:27.000Z,28.8
2019-01-11T15:42:27.000Z,28.7
2019-01-11T15:44:27.000Z,28.6
2019-01-11T15:45:27.000Z,28.6
2019-01-11T15:47:27.000Z,28.6
2019-01-11T15:48:27.000Z,28.6
2019-01-11T15:49:27.000Z,28.7
2019-01-11T15:50:27.000Z,28.7
2019-01-11T15:51:27.000Z,28.8
2019-01-11T15:53:27.000Z,28.9
2019-01-11T15:54:27.000Z,28.9
2019-01-11T15:55:27.000Z,28.9
2019-01-11T15:57:27.000Z,28.8
2019-01-11T15:59:27.000Z,28.7
2019-01-11T16:01:27.000Z,28.6
2019-01-11T16:02:27.000Z,28.6
2019-01-11T16:03:27.000Z,28.7
2019-01-11T16:05:27.000Z,28.7
2019-01-11T16:07:27.000Z,28.7
2019-01-11T16:09:27.000Z,28.6
2019-01-11T16:11:27.000Z,28.6
2019-01-11T16:13:27.000Z,28.6
2019-01-11T16:15:27.000Z,28.5
2019-01-11T16:16:27.000Z,28.5
2019-01-11T16:18:27.000Z,28.6
2019-01-11T16:19:27.000Z,28.6
2019-01-11T16:21:27.000Z,28.6
2019-01-11T16:23:27.000Z,28.5
2019-01-11T16:24:27.000Z,28.6
2019-01-11T16:25:27.000Z,28.6
2019-01-11T16:27:27.000Z,28.7
2019-01-11T16:28:27.000Z,28.7
2019-01-11T16:30:27.000Z,28.7
2019-01-11T16:32:27.000Z,28.6
2019-01-11T16:33:27.000Z,28.6
2019-01-11T16:34:27.000Z,28.6
2019-01-11T16:36:27.000Z,28.6
2019-01-11T16:37:27.000Z,28.6
2019-01-11T16:39:27.000Z,28.5
2019-01-11T16:40:27.000Z,28.5
2019-01-11T16:42:27.000Z,28.6
2019-01-11T16:43:27.000Z,28.6
2019-01-11T16:45:27.000Z,28.6
2019-01-11T16:46:27.000Z,28.6
2019-01-11T16:47:27.000Z,28.7
2019-01-11T16:49:12.000Z,28.7
2019-01-11T16:50:27.000Z,28.7
2019-01-11T16:52:12.000Z,28.6
2019-01-11T16:53:27.000Z,28.5
2019-01-11T16:54:27.000Z,28.4
2019-01-11T16:56:27.000Z,28.4
2019-01-11T16:58:27.000Z,28.3
2019-01-11T16:59:27.000Z,28.4
2019-01-11T17:01:27.000Z,28.4
2019-01-11T17:03:27.000Z,28.4
2019-01-11T17:04:27.000Z,28.4
2019-01-11T17:06:27.000Z,28.5
2019-01-11T17:08:27.000Z,28.5
2019-01-11T17:10:12.000Z,28.4
2019-01-11T17:11:27.000Z,28.3
2019-01-11T17:13:27.000Z,28.3
2019-01-11T17:15:27.000Z,28.3
2019-01-11T17:16:27.000Z,28.3
2019-01-11T17:18:27.000Z,28.3
2019-01-11T17:19:27.000Z,28.4
2019-01-11T17:21:27.000Z,28.4
2019-01-11T17:22:27.000Z,28.5
2019-01-11T17:23:27.000Z,28.5
2019-01-11T17:25:27.000Z,28.6
2019-01-11T17:26:27.000Z,28.6
2019-01-11T17:28:27.000Z,28.5
2019-01-11T17:29:27.000Z,28.5
2019-01-11T17:30:27.000Z,28.5
2019-01-11T17:32:12.000Z,28.5
2019-01-11T17:33:27.000Z,28.5
2019-01-11T17:35:27.000Z,28.5
2019-01-11T17:36:27.000Z,28.5
2019-01-11T17:37:27.000Z,28.5
2019-01-11T17:38:27.000Z,28.5
2019-01-11T17:40:27.000Z,28.6
2019-01-11T17:42:27.000Z,28.6
2019-01-11T17:43:27.000Z,28.6
2019-01-11T17:45:27.000Z,28.6
2019-01-11T17:47:27.000Z,28.5
2019-01-11T17:48:27.000Z,28.5
2019-01-11T17:49:27.000Z,28.5
2019-01-11T17:51:27.000Z,28.5
2019-01-11T17:53:27.000Z,28.3
2019-01-11T17:54:27.000Z,28.3
2019-01-11T17:55:27.000Z,28.3
2019-01-11T17:56:27.000Z,28.4
2019-01-11T17:58:27.000Z,28.4
2019-01-11T18:00:27.000Z,28.3
2019-01-11T18:02:27.000Z,28.3
2019-01-11T18:04:12.000Z,28.3
2019-01-11T18:05:27.000Z,28.3
2019-01-11T18:07:27.000Z,28.2
2019-01-11T18:08:27.000Z,28.2
2019-01-11T18:10:12.000Z,28.3
2019-01-11T18:12:19.000Z,28
2019-01-11T18:13:27.000Z,27.9
2019-01-11T18:14:27.000Z,27.9
2019-01-11T18:15:27.000Z,28
2019-01-11T18:17:27.000Z,28.1
2019-01-11T18:19:27.000Z,28.2
2019-01-11T18:21:27.000Z,28.2
2019-01-11T18:23:27.000Z,28.2
2019-01-11T18:24:27.000Z,28.2
2019-01-11T18:25:27.000Z,28.2
2019-01-11T18:26:27.000Z,28.3
2019-01-11T18:28:27.000Z,28.4
2019-01-11T18:30:12.000Z,28.4
2019-01-11T18:31:27.000Z,28.4
2019-01-11T18:33:27.000Z,28.3
2019-01-11T18:34:27.000Z,28.4
2019-01-11T18:35:28.000Z,28.4
2019-01-11T18:36:28.000Z,28.5
2019-01-11T18:38:28.000Z,28.5
2019-01-11T18:40:28.000Z,28.5
2019-01-11T18:41:28.000Z,28.5
2019-01-11T18:43:28.000Z,28.5
2019-01-11T18:44:28.000Z,28.5
2019-01-11T18:46:28.000Z,28.5
2019-01-11T18:48:28.000Z,28.5
2019-01-11T18:49:28.000Z,28.4
2019-01-11T18:50:28.000Z,28.5
2019-01-11T18:52:28.000Z,28.5
2019-01-11T18:54:28.000Z,28.4
2019-01-11T18:55:28.000Z,28.3
2019-01-11T18:57:13.000Z,28.4
2019-01-11T18:58:28.000Z,28.3
2019-01-11T18:59:28.000Z,28.3
2019-01-11T19:01:28.000Z,28.4
2019-01-11T19:03:28.000Z,28.3
2019-01-11T19:05:28.000Z,28.2
2019-01-11T19:06:28.000Z,28.2
2019-01-11T19:08:28.000Z,28.2
2019-01-11T19:10:28.000Z,28.1
2019-01-11T19:12:28.000Z,28.1
2019-01-11T19:14:28.000Z,28.1
2019-01-11T19:15:28.000Z,28.1
2019-01-11T19:17:28.000Z,28.1
2019-01-11T19:19:28.000Z,28
2019-01-11T19:21:28.000Z,28
2019-01-11T19:23:28.000Z,27.9
2019-01-11T19:25:28.000Z,27.8
2019-01-11T19:26:28.000Z,27.8
2019-01-11T19:28:28.000Z,27.8
2019-01-11T19:29:28.000Z,27.8
2019-01-11T19:30:28.000Z,27.9
2019-01-11T19:32:28.000Z,28
2019-01-11T19:34:28.000Z,28.1
2019-01-11T19:36:28.000Z,28.1
2019-01-11T19:38:28.000Z,28
2019-01-11T19:39:28.000Z,28
2019-01-11T19:40:28.000Z,28.1
2019-01-11T19:41:28.000Z,28.2
2019-01-11T19:42:28.000Z,28.3
2019-01-11T19:44:28.000Z,28.4
2019-01-11T19:46:12.000Z,28.3
2019-01-11T19:47:28.000Z,28.2
2019-01-11T19:49:28.000Z,28.2
2019-01-11T19:51:28.000Z,28.2
2019-01-11T19:52:28.000Z,28.2
2019-01-11T19:53:28.000Z,28.2
2019-01-11T19:55:12.000Z,28.3
2019-01-11T19:56:28.000Z,28.3
2019-01-11T19:57:28.000Z,28.3
2019-01-11T19:59:28.000Z,28.3
2019-01-11T20:00:28.000Z,28.3
2019-01-11T20:02:27.000Z,28.2
2019-01-11T20:03:28.000Z,28.2
2019-01-11T20:05:28.000Z,28.2
2019-01-11T20:06:28.000Z,28.2
2019-01-11T20:07:28.000Z,28.2
2019-01-11T20:08:28.000Z,28.2
2019-01-11T20:10:28.000Z,28.3
2019-01-11T20:12:12.000Z,28.2
2019-01-11T20:13:27.000Z,28.1
2019-01-11T20:14:28.000Z,28.1
2019-01-11T20:16:28.000Z,28.1
2019-01-11T20:18:12.000Z,28
2019-01-11T20:19:28.000Z,28
2019-01-11T20:21:28.000Z,28
2019-01-11T20:22:28.000Z,28
2019-01-11T20:24:28.000Z,28
2019-01-11T20:25:28.000Z,28.1
2019-01-11T20:27:28.000Z,28.1
2019-01-11T20:28:28.000Z,28.1
2019-01-11T20:30:27.000Z,28.1
2019-01-11T20:32:28.000Z,28
2019-01-11T20:34:28.000Z,27.9
2019-01-11T20:36:28.000Z,27.9
2019-01-11T20:38:28.000Z,27.9
2019-01-11T20:39:28.000Z,27.9
2019-01-11T20:41:28.000Z,27.9
2019-01-11T20:43:27.000Z,27.9
2019-01-11T20:44:27.000Z,27.9
2019-01-11T20:45:27.000Z,28
2019-01-11T20:47:27.000Z,28
2019-01-11T20:49:27.000Z,28
2019-01-11T20:50:27.000Z,28
2019-01-11T20:51:27.000Z,28.1
2019-01-11T20:53:12.000Z,28.2
2019-01-11T20:54:27.000Z,28.1
2019-01-11T20:56:27.000Z,28.1
2019-01-11T20:58:27.000Z,28
2019-01-11T21:00:27.000Z,28
2019-01-11T21:02:27.000Z,28
2019-01-11T21:03:27.000Z,28
2019-01-11T21:04:27.000Z,28
2019-01-11T21:06:27.000Z,28
2019-01-11T21:08:27.000Z,28
2019-01-11T21:10:27.000Z,27.9
2019-01-11T21:12:27.000Z,27.9
2019-01-11T21:14:27.000Z,27.8
2019-01-11T21:15:27.000Z,27.8
2019-01-11T21:17:27.000Z,27.8
2019-01-11T21:18:27.000Z,27.9
2019-01-11T21:19:27.000Z,27.9
2019-01-11T21:21:27.000Z,27.9
2019-01-11T21:22:27.000Z,27.9
2019-01-11T21:24:27.000Z,27.9
2019-01-11T21:25:27.000Z,28
2019-01-11T21:27:12.000Z,28
2019-01-11T21:28:27.000Z,28
2019-01-11T21:29:27.000Z,28